Hollowayville, Illinois
Current Conditions -  °F | °C
As of 6:55 AM on Tuesday 21 Oct 2014 (Local Time) from KVYS Reporting Station
Clear Clear  
Wind Chill: 36°   Ceiling: Unl
Heat Index: 41°   Visibility: 10mi
Dew Point: 39°   Wind: 7mph
Humidity: 91%   Direction: 10°N
Pressure: 30.12"   Gusts: NA
Location:  41.3609°N, 89.3981°W
Report Text: KVYS 211155Z AUTO 01006KT 10SM CLR 05/04 A3012 RMK AO2 T00500037 10071 20050
Loading
Personal Weather Stations






























Interactive Weather Map
Tropical Storm Tracking
New forecast layout! Learn more

10-Day Weather Forecast

Advertisements
Track Severe Weather on mobile